Time;durP1;ratioP1;P1;durP2;ratioP2;P2;SDS_P1;SDS_P2;PMS_P1;PMS_P2;Temp;Humidity;BMP_temperature;BMP_pressure;BME280_temperature;BME280_humidity;BME280_pressure;Samples;Min_cycle;Max_cycle;Signal;HPM_P1;HPM_P2
2020/12/19 00:00:33;;;;;;;23.63;15.47;;;6.00;99.90;;;;;;4999874;28;20206;-76
2020/12/19 00:02:59;;;;;;;22.50;15.50;;;6.00;99.90;;;;;;4999782;28;20636;-76
2020/12/19 00:05:25;;;;;;;26.40;16.60;;;6.00;99.90;;;;;;4998697;28;20187;-75
2020/12/19 00:07:50;;;;;;;19.63;15.20;;;6.00;99.90;;;;;;4999934;28;20175;-77
2020/12/19 00:10:16;;;;;;;21.83;15.93;;;6.00;99.90;;;;;;4999809;28;20171;-76
2020/12/19 00:12:45;;;;;;;23.83;16.77;;;6.10;99.90;;;;;;4999469;28;20184;-76
2020/12/19 00:15:13;;;;;;;23.13;15.32;;;6.00;99.90;;;;;;4999913;28;20195;-77
2020/12/19 00:17:39;;;;;;;22.20;15.45;;;6.00;99.90;;;;;;4999941;28;20567;-75
2020/12/19 00:20:04;;;;;;;22.50;16.17;;;6.10;99.90;;;;;;4999992;28;20176;-77
2020/12/19 00:22:30;;;;;;;21.17;15.20;;;6.20;99.90;;;;;;4999599;28;20415;-76
2020/12/19 00:24:56;;;;;;;21.90;14.60;;;6.20;99.90;;;;;;4999946;28;20577;-75
2020/12/19 00:27:21;;;;;;;19.67;14.17;;;6.20;99.90;;;;;;4999793;28;20171;-75
2020/12/19 00:29:47;;;;;;;15.60;13.23;;;6.10;99.90;;;;;;4999811;28;20171;-76
2020/12/19 00:32:12;;;;;;;22.10;14.40;;;6.20;99.90;;;;;;4999591;28;20642;-75
2020/12/19 00:34:38;;;;;;;18.00;12.90;;;6.20;99.90;;;;;;4999689;28;20178;-77
2020/12/19 00:37:04;;;;;;;17.30;14.03;;;6.20;99.90;;;;;;5000416;28;20683;-76
2020/12/19 00:39:29;;;;;;;12.13;9.77;;;6.20;99.90;;;;;;4999612;28;20230;-75
2020/12/19 00:41:55;;;;;;;13.33;10.50;;;6.20;99.90;;;;;;4995888;28;20219;-76
2020/12/19 00:44:21;;;;;;;16.37;11.67;;;6.20;99.90;;;;;;4996818;28;20184;-75
2020/12/19 00:46:50;;;;;;;13.40;10.07;;;6.30;99.90;;;;;;4996672;28;20462;-76
2020/12/19 00:49:17;;;;;;;18.33;10.10;;;6.40;99.90;;;;;;4996395;28;20200;-76
2020/12/19 00:51:42;;;;;;;13.30;10.20;;;6.40;99.90;;;;;;4995128;28;20215;-77
2020/12/19 00:54:08;;;;;;;12.97;9.37;;;6.40;99.90;;;;;;4996183;28;20180;-76
2020/12/19 00:56:34;;;;;;;13.40;10.10;;;6.50;99.90;;;;;;4996290;28;20459;-76
2020/12/19 00:58:59;;;;;;;14.43;11.00;;;6.50;99.90;;;;;;4996226;28;20172;-75
2020/12/19 01:01:25;;;;;;;11.97;9.70;;;6.50;99.90;;;;;;4996251;28;20676;-77
2020/12/19 01:03:53;;;;;;;13.57;10.02;;;6.70;99.90;;;;;;4996040;28;20264;-75
2020/12/19 01:06:21;;;;;;;15.15;11.13;;;6.70;99.90;;;;;;4996188;28;20194;-75
2020/12/19 01:08:49;;;;;;;17.10;11.98;;;6.70;99.90;;;;;;4994832;28;20262;-75
2020/12/19 01:11:20;;;;;;;21.15;13.65;;;6.60;99.90;;;;;;4994653;28;20270;-77
2020/12/19 01:13:46;;;;;;;22.67;15.70;;;6.60;99.90;;;;;;4995723;28;20250;-77
2020/12/19 01:16:16;;;;;;;20.83;16.10;;;6.70;99.90;;;;;;4995912;28;20215;-76
2020/12/19 01:18:46;;;;;;;24.45;17.08;;;6.70;99.90;;;;;;4995853;28;20640;-77
2020/12/19 01:21:13;;;;;;;28.92;20.50;;;6.80;99.90;;;;;;4995836;28;20207;-75
2020/12/19 01:23:39;;;;;;;29.70;20.30;;;6.70;99.90;;;;;;4994308;28;20183;-75
2020/12/19 01:26:05;;;;;;;29.97;19.80;;;6.60;99.90;;;;;;4995992;28;20639;-76
2020/12/19 01:28:31;;;;;;;25.33;19.20;;;6.60;99.90;;;;;;4995871;28;20184;-77
2020/12/19 01:30:56;;;;;;;23.57;17.87;;;6.60;99.90;;;;;;4995541;28;20191;-76
2020/12/19 01:33:22;;;;;;;26.10;17.90;;;6.50;99.90;;;;;;4995466;28;20426;-77
2020/12/19 01:35:47;;;;;;;29.47;15.90;;;6.50;99.90;;;;;;4995780;28;20594;-76
2020/12/19 01:38:13;;;;;;;26.10;18.20;;;6.50;99.90;;;;;;4995686;28;20180;-75
2020/12/19 01:40:38;;;;;;;25.57;17.27;;;6.40;99.90;;;;;;4995552;28;20550;-78
2020/12/19 01:43:04;;;;;;;25.93;16.60;;;6.40;99.90;;;;;;4995114;28;20188;-75
2020/12/19 01:45:30;;;;;;;26.93;15.63;;;6.40;99.90;;;;;;4995445;28;20184;-76
2020/12/19 01:47:57;;;;;;;18.20;13.50;;;6.30;99.90;;;;;;4995296;28;20428;-76
2020/12/19 01:50:23;;;;;;;16.33;13.48;;;6.40;99.90;;;;;;4994628;28;20176;-75
2020/12/19 01:52:50;;;;;;;23.95;15.30;;;6.40;99.90;;;;;;4995293;28;20181;-74
2020/12/19 01:55:16;;;;;;;18.40;13.93;;;6.40;99.90;;;;;;4995001;28;20657;-76
2020/12/19 01:57:41;;;;;;;20.70;14.00;;;6.40;99.90;;;;;;4995113;28;20186;-75
2020/12/19 02:00:07;;;;;;;20.80;14.40;;;6.40;99.90;;;;;;4995008;28;20180;-76
2020/12/19 02:02:33;;;;;;;22.00;14.13;;;6.50;99.90;;;;;;4993627;28;20666;-74
2020/12/19 02:04:59;;;;;;;21.07;13.97;;;6.60;99.90;;;;;;4994986;28;20926;-76
2020/12/19 02:07:24;;;;;;;23.90;14.27;;;6.60;99.90;;;;;;4994834;28;20266;-76
2020/12/19 02:09:52;;;;;;;21.77;13.50;;;6.50;99.90;;;;;;4995243;28;20181;-75
2020/12/19 02:12:18;;;;;;;20.27;14.30;;;6.60;99.90;;;;;;4994585;28;20782;-76
2020/12/19 02:14:44;;;;;;;21.75;14.15;;;6.50;99.90;;;;;;4994783;28;20515;-77
2020/12/19 02:17:12;;;;;;;22.80;13.90;;;6.60;99.90;;;;;;4994784;28;20204;-77
2020/12/19 02:19:38;;;;;;;20.52;15.20;;;6.50;99.90;;;;;;4994827;28;20224;-77
2020/12/19 02:22:05;;;;;;;16.20;13.20;;;6.60;99.90;;;;;;4994513;28;21128;-75
2020/12/19 02:24:31;;;;;;;19.48;12.48;;;6.50;99.90;;;;;;4994769;28;20186;-77
2020/12/19 02:26:58;;;;;;;19.45;12.85;;;6.50;99.90;;;;;;4995027;28;20571;-75
2020/12/19 02:29:26;;;;;;;20.23;12.98;;;6.60;99.90;;;;;;4993394;28;20267;-77
2020/12/19 02:31:53;;;;;;;17.40;12.35;;;6.60;99.90;;;;;;4994280;28;20200;-77
2020/12/19 02:34:19;;;;;;;20.65;12.93;;;6.60;99.90;;;;;;4994669;28;20184;-74
2020/12/19 02:36:44;;;;;;;16.13;12.00;;;6.70;99.90;;;;;;4994704;28;20212;-75
2020/12/19 02:39:10;;;;;;;17.93;12.73;;;6.80;99.90;;;;;;4994641;28;20410;-77
2020/12/19 02:41:37;;;;;;;21.37;11.40;;;6.70;99.90;;;;;;4994411;28;20672;-75
2020/12/19 02:44:03;;;;;;;25.30;13.57;;;6.70;99.90;;;;;;4994215;28;20407;-75
2020/12/19 02:46:30;;;;;;;23.10;13.63;;;6.70;99.90;;;;;;4994575;28;20650;-77
2020/12/19 02:48:56;;;;;;;20.45;13.70;;;6.60;99.90;;;;;;4994250;28;20431;-75
2020/12/19 02:51:21;;;;;;;22.20;13.85;;;6.50;99.90;;;;;;4994429;28;20284;-75
2020/12/19 02:53:47;;;;;;;18.57;13.47;;;6.60;99.90;;;;;;4993995;28;20677;-75
2020/12/19 02:56:13;;;;;;;25.73;12.87;;;6.60;99.90;;;;;;4994283;28;20208;-75
2020/12/19 02:58:38;;;;;;;20.40;13.53;;;6.70;99.90;;;;;;4994166;28;20187;-75
2020/12/19 03:01:04;;;;;;;22.50;14.87;;;6.80;99.90;;;;;;4994104;28;20199;-76
2020/12/19 03:03:29;;;;;;;27.87;16.70;;;6.70;99.90;;;;;;4976229;28;20185;-77
2020/12/19 03:05:55;;;;;;;26.73;16.67;;;6.80;99.90;;;;;;4993613;28;20192;-76
2020/12/19 03:08:21;;;;;;;25.93;17.13;;;6.60;99.90;;;;;;4994017;28;20194;-75
2020/12/19 03:10:46;;;;;;;30.30;17.57;;;6.70;99.90;;;;;;4993798;28;20210;-75
2020/12/19 03:13:12;;;;;;;29.20;17.07;;;6.60;99.90;;;;;;4993760;28;20189;-75
2020/12/19 03:15:38;;;;;;;29.63;18.10;;;6.60;99.90;;;;;;4993840;28;20468;-76
2020/12/19 03:18:03;;;;;;;26.10;16.60;;;6.40;99.90;;;;;;4993719;28;20262;-77
2020/12/19 03:20:29;;;;;;;21.60;15.70;;;6.40;99.90;;;;;;4993860;28;20203;-76
2020/12/19 03:22:54;;;;;;;23.87;16.40;;;6.20;99.90;;;;;;4993705;28;20259;-76
2020/12/19 03:25:20;;;;;;;31.17;17.23;;;6.20;99.90;;;;;;4993888;28;20180;-77
2020/12/19 03:27:46;;;;;;;26.27;16.67;;;6.10;99.90;;;;;;4993872;28;20237;-74
2020/12/19 03:30:11;;;;;;;24.97;16.00;;;6.10;99.90;;;;;;4993690;28;20230;-76
2020/12/19 03:32:37;;;;;;;28.07;17.00;;;6.00;99.90;;;;;;4993342;28;20187;-75
2020/12/19 03:35:03;;;;;;;27.43;17.10;;;5.90;99.90;;;;;;4993673;28;20484;-76
2020/12/19 03:37:29;;;;;;;30.38;18.55;;;5.90;99.90;;;;;;4993974;28;20180;-75
2020/12/19 03:39:54;;;;;;;25.93;16.43;;;5.90;99.90;;;;;;4993623;28;20667;-75
2020/12/19 03:42:20;;;;;;;25.63;16.90;;;5.80;99.90;;;;;;4993230;28;20200;-75
2020/12/19 03:44:45;;;;;;;34.10;18.67;;;5.70;99.90;;;;;;4993640;28;20692;-75
2020/12/19 03:47:11;;;;;;;28.73;16.73;;;5.70;99.90;;;;;;4993344;28;20175;-77
2020/12/19 03:49:37;;;;;;;26.43;18.67;;;5.60;99.90;;;;;;4993415;28;20189;-76
2020/12/19 03:52:02;;;;;;;28.37;18.17;;;5.60;99.90;;;;;;4993063;28;20195;-75
2020/12/19 03:54:28;;;;;;;30.10;17.97;;;5.70;99.90;;;;;;4993450;28;20176;-77
2020/12/19 03:56:53;;;;;;;24.23;16.60;;;5.70;99.90;;;;;;4993395;28;20219;-77
2020/12/19 03:59:20;;;;;;;32.40;19.50;;;5.60;99.90;;;;;;4993505;28;20207;-76
2020/12/19 04:01:46;;;;;;;25.23;17.10;;;5.60;99.90;;;;;;4993276;28;20188;-76
2020/12/19 04:04:12;;;;;;;23.35;16.45;;;5.60;99.90;;;;;;4993087;28;20171;-77
2020/12/19 04:06:38;;;;;;;26.33;17.03;;;5.70;99.90;;;;;;4993435;28;20556;-78
2020/12/19 04:09:04;;;;;;;24.08;15.95;;;5.60;99.90;;;;;;4993347;28;20406;-77
2020/12/19 04:11:30;;;;;;;24.50;16.63;;;5.60;99.90;;;;;;4993357;28;20199;-78
2020/12/19 04:13:55;;;;;;;25.53;15.60;;;5.60;99.90;;;;;;4992975;28;20179;-77
2020/12/19 04:16:21;;;;;;;30.53;16.97;;;5.60;99.90;;;;;;4993827;28;20199;-77
2020/12/19 04:18:46;;;;;;;26.60;15.47;;;5.70;99.90;;;;;;4997215;28;20175;-76
2020/12/19 04:21:12;;;;;;;22.80;15.80;;;5.70;99.90;;;;;;4995686;28;20205;-75
2020/12/19 04:23:37;;;;;;;24.00;15.77;;;5.80;99.90;;;;;;4996789;28;20654;-74
2020/12/19 04:26:03;;;;;;;26.70;17.77;;;5.80;99.90;;;;;;4996882;28;20178;-76
2020/12/19 04:28:29;;;;;;;25.93;16.20;;;5.90;99.90;;;;;;4996931;28;20259;-75
2020/12/19 04:30:55;;;;;;;27.13;17.55;;;6.00;99.90;;;;;;4996788;28;20204;-74
2020/12/19 04:33:21;;;;;;;23.30;16.77;;;5.90;99.90;;;;;;4996681;28;20684;-75
2020/12/19 04:35:47;;;;;;;29.58;17.88;;;5.90;99.90;;;;;;4996803;28;20501;-74
2020/12/19 04:38:13;;;;;;;32.33;18.40;;;5.80;99.90;;;;;;4996872;28;20203;-75
2020/12/19 04:40:39;;;;;;;26.38;17.27;;;5.90;99.90;;;;;;4996693;28;20188;-77
2020/12/19 04:43:19;;;;;;;21.40;16.63;;;5.90;99.90;;;;;;4996449;28;20697;-74
2020/12/19 04:45:46;;;;;;;26.00;17.50;;;5.90;99.90;;;;;;4996833;28;20175;-74
2020/12/19 04:48:18;;;;;;;24.42;16.88;;;5.90;99.90;;;;;;4996443;28;20187;-77
2020/12/19 04:50:46;;;;;;;26.50;16.60;;;5.90;99.90;;;;;;4996368;28;20231;-74
2020/12/19 04:53:16;;;;;;;23.67;16.42;;;5.80;99.90;;;;;;4996249;28;20167;-76
2020/12/19 04:55:42;;;;;;;24.65;15.25;;;5.80;99.90;;;;;;4996229;28;20207;-75
2020/12/19 04:58:12;;;;;;;26.85;17.50;;;5.70;99.90;;;;;;4996585;28;20178;-76
2020/12/19 05:00:39;;;;;;;28.55;20.00;;;5.80;99.90;;;;;;4996126;28;20191;-76
2020/12/19 05:03:05;;;;;;;34.58;21.60;;;5.70;99.90;;;;;;4995955;28;20199;-77
2020/12/19 05:05:31;;;;;;;32.30;20.50;;;5.60;99.90;;;;;;4996372;28;20191;-78
2020/12/19 05:07:56;;;;;;;38.87;22.87;;;5.60;99.90;;;;;;4996261;28;20517;-76
2020/12/19 05:10:22;;;;;;;32.30;22.77;;;5.70;99.90;;;;;;4995961;28;20180;-77
2020/12/19 05:12:52;;;;;;;33.67;21.50;;;5.80;99.90;;;;;;4995592;28;20490;-75
2020/12/19 05:15:19;;;;;;;33.10;21.63;;;5.80;99.90;;;;;;4995957;28;20195;-76
2020/12/19 05:17:51;;;;;;;31.48;19.25;;;5.70;99.90;;;;;;4995921;28;20668;-76
2020/12/19 05:20:19;;;;;;;34.22;20.65;;;5.70;99.90;;;;;;4995931;28;20262;-76
2020/12/19 05:22:49;;;;;;;28.88;20.10;;;5.70;99.90;;;;;;4995475;28;20660;-77
2020/12/19 05:25:17;;;;;;;28.30;18.90;;;5.70;99.90;;;;;;4996007;28;20214;-74
2020/12/19 05:27:47;;;;;;;25.15;18.40;;;5.70;99.90;;;;;;4995325;28;20175;-75
2020/12/19 05:30:15;;;;;;;30.00;19.40;;;5.70;99.90;;;;;;4995820;28;20180;-74
2020/12/19 05:32:52;;;;;;;25.42;18.92;;;5.60;99.90;;;;;;4995199;28;20216;-76
2020/12/19 05:35:20;;;;;;;23.30;17.92;;;5.70;99.90;;;;;;4995613;28;20222;-73
2020/12/19 05:38:03;;;;;;;27.05;17.58;;;5.80;99.90;;;;;;4994317;28;20178;-76
2020/12/19 05:40:30;;;;;;;24.77;17.63;;;5.90;99.90;;;;;;4995508;28;20223;-75
2020/12/19 05:42:57;;;;;;;26.25;19.05;;;5.90;99.90;;;;;;4995119;28;20204;-75
2020/12/19 05:45:24;;;;;;;23.13;17.92;;;6.00;99.90;;;;;;4995778;28;20231;-75
2020/12/19 05:47:50;;;;;;;26.65;18.98;;;6.00;99.90;;;;;;4995324;28;20172;-75
2020/12/19 05:50:17;;;;;;;25.75;17.67;;;6.10;99.90;;;;;;4995305;28;20206;-76
2020/12/19 05:52:43;;;;;;;24.90;17.55;;;6.00;99.90;;;;;;4995024;28;20259;-76
2020/12/19 05:55:15;;;;;;;26.07;17.23;;;6.10;99.90;;;;;;4995040;28;20294;-76
2020/12/19 05:57:41;;;;;;;21.95;15.30;;;6.10;99.90;;;;;;4995234;28;20418;-75
2020/12/19 06:00:09;;;;;;;21.07;15.40;;;6.10;99.90;;;;;;4995177;28;20234;-77
2020/12/19 06:02:36;;;;;;;20.13;14.05;;;6.20;99.90;;;;;;4994772;28;20412;-75
2020/12/19 06:05:10;;;;;;;21.02;14.63;;;6.20;99.90;;;;;;4995040;28;20188;-76
2020/12/19 06:07:41;;;;;;;18.77;13.23;;;6.20;99.90;;;;;;4995141;28;20541;-76
2020/12/19 06:10:09;;;;;;;18.83;12.45;;;6.30;99.90;;;;;;4995086;28;20534;-76
2020/12/19 06:12:56;;;;;;;17.60;12.65;;;6.20;99.90;;;;;;4994714;28;20168;-75
2020/12/19 06:15:40;;;;;;;20.33;14.60;;;6.30;99.90;;;;;;4994778;28;20969;-75
2020/12/19 06:18:26;;;;;;;27.40;18.40;;;6.30;99.90;;;;;;4994820;28;20171;-77
2020/12/19 06:20:52;;;;;;;33.00;22.58;;;6.30;99.90;;;;;;4994748;28;20199;-76
2020/12/19 06:23:17;;;;;;;35.92;24.77;;;6.50;99.90;;;;;;4994300;28;20253;-76
2020/12/19 06:25:47;;;;;;;40.43;25.20;;;6.60;99.90;;;;;;4994687;28;20587;-76
2020/12/19 06:28:38;;;;;;;32.05;22.45;;;6.70;99.90;;;;;;4997310;28;20190;-75
2020/12/19 06:31:08;;;;;;;38.00;21.73;;;6.70;99.90;;;;;;4994301;28;20204;-76
2020/12/19 06:33:38;;;;;;;33.95;23.35;;;6.70;99.90;;;;;;4994282;28;20187;-75
2020/12/19 06:36:25;;;;;;;30.25;19.27;;;6.60;99.90;;;;;;4994437;28;20233;-76
2020/12/19 06:38:58;;;;;;;29.98;19.17;;;6.60;99.90;;;;;;4993780;28;20189;-75
2020/12/19 06:41:42;;;;;;;33.53;20.00;;;6.60;99.90;;;;;;4994340;28;20242;-75
2020/12/19 06:44:19;;;;;;;30.48;19.73;;;6.60;99.90;;;;;;4994191;28;20250;-75
2020/12/19 06:46:45;;;;;;;25.27;18.08;;;6.50;99.90;;;;;;4994471;28;20186;-74
2020/12/19 06:49:23;;;;;;;26.38;17.60;;;6.50;99.90;;;;;;4994289;28;20214;-75
2020/12/19 06:52:20;;;;;;;27.10;17.80;;;6.50;99.90;;;;;;4994183;28;20197;-75
2020/12/19 06:54:47;;;;;;;29.60;20.77;;;6.40;99.90;;;;;;4993873;28;20325;-76
2020/12/19 06:57:25;;;;;;;30.70;21.08;;;6.50;99.90;;;;;;4994231;28;20656;-75
2020/12/19 06:59:51;;;;;;;31.70;21.13;;;6.40;99.90;;;;;;4994320;28;20184;-74
2020/12/19 07:02:21;;;;;;;33.45;19.30;;;6.40;99.90;;;;;;4994023;28;20198;-74
2020/12/19 07:04:48;;;;;;;31.55;20.67;;;6.30;99.90;;;;;;4994340;28;20230;-76
2020/12/19 07:07:16;;;;;;;28.65;21.17;;;6.40;99.90;;;;;;4994053;28;20235;-75
2020/12/19 07:09:53;;;;;;;28.38;18.83;;;6.40;99.90;;;;;;4993962;28;20230;-75
2020/12/19 07:12:28;;;;;;;24.85;18.60;;;6.30;99.90;;;;;;4993722;28;20194;-76
2020/12/19 07:14:54;;;;;;;26.25;18.05;;;6.20;99.90;;;;;;4993966;28;20583;-75
2020/12/19 07:17:20;;;;;;;29.10;18.70;;;6.30;99.90;;;;;;4993913;28;20172;-74
2020/12/19 07:19:46;;;;;;;28.13;20.20;;;6.30;99.90;;;;;;4993724;28;20167;-76
2020/12/19 07:22:12;;;;;;;30.00;18.02;;;6.30;99.90;;;;;;4993454;28;20487;-76
2020/12/19 07:24:38;;;;;;;30.33;20.98;;;6.30;99.90;;;;;;4993821;28;20171;-75
2020/12/19 07:27:04;;;;;;;26.27;20.75;;;6.20;99.90;;;;;;4993901;28;20172;-74
2020/12/19 07:29:30;;;;;;;30.67;20.17;;;6.20;99.90;;;;;;4993912;28;20269;-75
2020/12/19 07:32:00;;;;;;;27.93;21.13;;;6.30;99.90;;;;;;4993289;28;20442;-76
2020/12/19 07:34:27;;;;;;;31.13;22.00;;;6.30;99.90;;;;;;4993835;28;20415;-76
2020/12/19 07:36:53;;;;;;;34.75;23.33;;;6.20;99.90;;;;;;4993719;28;20329;-75
2020/12/19 07:39:20;;;;;;;29.40;20.23;;;6.30;99.90;;;;;;4993741;28;20771;-75
2020/12/19 07:42:00;;;;;;;29.40;22.30;;;6.20;99.90;;;;;;4993398;28;20227;-75
2020/12/19 07:44:26;;;;;;;38.47;21.55;;;6.20;99.90;;;;;;4993647;28;20180;-75
2020/12/19 07:47:10;;;;;;;30.00;21.80;;;6.20;99.90;;;;;;4993840;28;20192;-74
2020/12/19 07:49:37;;;;;;;30.38;22.30;;;6.30;99.90;;;;;;4993745;28;20569;-75
2020/12/19 07:52:11;;;;;;;30.73;21.80;;;6.40;99.90;;;;;;4997015;28;20203;-76
2020/12/19 07:54:38;;;;;;;30.95;20.77;;;6.40;99.90;;;;;;4997763;28;20529;-76
2020/12/19 07:57:05;;;;;;;39.30;23.20;;;6.40;99.90;;;;;;4997464;28;20286;-76
2020/12/19 07:59:31;;;;;;;27.17;20.20;;;6.50;99.90;;;;;;4997425;28;20643;-75
2020/12/19 08:02:02;;;;;;;32.42;22.00;;;6.60;99.90;;;;;;4995597;28;20756;-77
2020/12/19 08:04:28;;;;;;;27.05;21.05;;;6.60;99.90;;;;;;4997411;28;20205;-76
2020/12/19 08:06:54;;;;;;;30.50;21.75;;;6.60;99.90;;;;;;4997381;28;20188;-77
2020/12/19 08:09:21;;;;;;;30.20;21.50;;;6.60;99.90;;;;;;4997402;28;20177;-75
2020/12/19 08:11:48;;;;;;;31.13;21.45;;;6.60;99.90;;;;;;4997033;28;20208;-77
2020/12/19 08:14:15;;;;;;;37.63;23.83;;;6.70;99.90;;;;;;4996893;28;20611;-76
2020/12/19 08:16:42;;;;;;;35.22;22.50;;;6.70;99.90;;;;;;4997132;28;20203;-77
2020/12/19 08:19:09;;;;;;;36.20;22.35;;;6.70;99.90;;;;;;4997109;28;20214;-76
2020/12/19 08:21:37;;;;;;;30.95;20.38;;;6.80;99.90;;;;;;4997058;28;20576;-75
2020/12/19 08:24:02;;;;;;;35.38;20.10;;;6.80;99.90;;;;;;4996629;28;20229;-76
2020/12/19 08:26:28;;;;;;;33.33;18.90;;;6.80;99.90;;;;;;4996947;28;20172;-76
2020/12/19 08:29:20;;;;;;;33.00;20.30;;;6.90;99.90;;;;;;4997101;28;20411;-74
2020/12/19 08:31:53;;;;;;;30.75;19.30;;;6.90;99.90;;;;;;4995600;28;20216;-77
2020/12/19 08:34:19;;;;;;;27.33;18.50;;;7.00;99.90;;;;;;4996792;28;20306;-76
2020/12/19 08:36:46;;;;;;;26.35;17.58;;;7.00;99.90;;;;;;4996845;28;20231;-77
2020/12/19 08:39:15;;;;;;;23.63;16.30;;;7.00;99.90;;;;;;4997037;28;20207;-74
2020/12/19 08:41:42;;;;;;;24.30;18.45;;;7.00;99.90;;;;;;4995708;28;20197;-75
2020/12/19 08:44:24;;;;;;;27.00;17.95;;;7.00;99.90;;;;;;4996525;28;20168;-76
2020/12/19 08:47:04;;;;;;;26.58;19.00;;;7.00;99.90;;;;;;4995638;28;20667;-75
2020/12/19 08:49:31;;;;;;;28.83;18.58;;;7.10;99.90;;;;;;4996579;28;20194;-77
2020/12/19 08:51:57;;;;;;;32.72;19.38;;;7.00;99.90;;;;;;4996234;28;20688;-75
2020/12/19 08:54:23;;;;;;;26.40;17.93;;;7.20;99.90;;;;;;4996450;28;20186;-74
2020/12/19 08:56:50;;;;;;;23.33;15.82;;;7.20;99.90;;;;;;4996441;28;20515;-76
2020/12/19 08:59:26;;;;;;;23.17;16.42;;;7.30;99.90;;;;;;4996548;28;20585;-76
2020/12/19 09:01:54;;;;;;;24.27;16.05;;;7.40;99.90;;;;;;4999602;28;20227;-76
2020/12/19 09:04:20;;;;;;;23.08;16.45;;;7.50;99.90;;;;;;5010581;28;20388;-77
2020/12/19 09:06:50;;;;;;;20.60;15.60;;;7.60;99.90;;;;;;5015737;28;20241;-76
2020/12/19 09:09:27;;;;;;;22.98;16.13;;;7.70;99.90;;;;;;5016167;28;20174;-74
2020/12/19 09:12:09;;;;;;;25.25;15.73;;;7.80;99.90;;;;;;5015475;28;20197;-74
2020/12/19 09:14:34;;;;;;;19.45;14.93;;;8.00;99.90;;;;;;5015642;28;20606;-75
2020/12/19 09:17:00;;;;;;;18.17;13.63;;;8.10;99.90;;;;;;5015691;28;20203;-76
2020/12/19 09:19:26;;;;;;;15.43;11.93;;;8.20;99.90;;;;;;5015553;28;20185;-75
2020/12/19 09:21:59;;;;;;;14.27;11.77;;;8.40;99.90;;;;;;5015254;28;20201;-76
2020/12/19 09:24:25;;;;;;;15.48;11.40;;;8.50;99.90;;;;;;5015439;28;20171;-76
2020/12/19 09:26:51;;;;;;;12.80;11.32;;;8.60;99.90;;;;;;5015362;28;20175;-76
2020/12/19 09:29:17;;;;;;;12.27;9.87;;;8.70;99.90;;;;;;5015402;28;20194;-75
2020/12/19 09:31:43;;;;;;;11.90;10.13;;;8.80;99.90;;;;;;5015461;28;20441;-76
2020/12/19 09:34:09;;;;;;;12.80;9.40;;;8.70;99.90;;;;;;5015239;28;20179;-76
2020/12/19 09:36:36;;;;;;;10.98;8.88;;;8.90;99.90;;;;;;5015192;28;20741;-77
2020/12/19 09:39:02;;;;;;;13.38;8.73;;;8.90;99.90;;;;;;5015330;28;20175;-74
2020/12/19 09:41:28;;;;;;;11.18;7.47;;;9.00;99.90;;;;;;5015199;28;20567;-76
2020/12/19 09:43:53;;;;;;;10.47;8.13;;;9.20;99.90;;;;;;5008980;28;20167;-78
2020/12/19 09:46:19;;;;;;;9.50;8.27;;;9.20;99.90;;;;;;5002157;28;20179;-77
2020/12/19 09:48:44;;;;;;;12.40;7.93;;;9.40;99.90;;;;;;4995180;28;20198;-78
2020/12/19 09:51:10;;;;;;;12.30;8.50;;;9.40;99.90;;;;;;4995404;28;20226;-80
2020/12/19 09:53:37;;;;;;;10.60;8.07;;;9.60;99.90;;;;;;4995022;28;20172;-77
2020/12/19 09:56:03;;;;;;;12.20;8.20;;;9.60;99.90;;;;;;4995220;28;20199;-78
2020/12/19 09:58:28;;;;;;;10.50;7.90;;;9.80;99.90;;;;;;4995543;28;20528;-76
2020/12/19 10:00:54;;;;;;;10.03;7.47;;;9.90;99.90;;;;;;4995148;28;20191;-75
2020/12/19 10:03:20;;;;;;;7.50;6.50;;;10.10;99.90;;;;;;4995368;28;20207;-75
2020/12/19 10:05:46;;;;;;;9.40;6.65;;;10.10;99.90;;;;;;4995234;28;20414;-76
2020/12/19 10:08:12;;;;;;;8.50;6.03;;;10.20;99.90;;;;;;5003623;28;20285;-75
2020/12/19 10:10:38;;;;;;;10.20;6.30;;;10.40;99.90;;;;;;5005204;28;20273;-76
2020/12/19 10:13:04;;;;;;;6.55;5.32;;;10.70;99.90;;;;;;5002341;28;20260;-75
2020/12/19 10:15:30;;;;;;;8.00;6.17;;;10.90;99.90;;;;;;5002816;28;20232;-76
2020/12/19 10:17:55;;;;;;;5.73;5.13;;;10.90;99.90;;;;;;5004998;28;20178;-74
2020/12/19 10:20:21;;;;;;;7.83;5.13;;;11.00;99.90;;;;;;4994856;28;20267;-76
2020/12/19 10:22:47;;;;;;;6.13;4.50;;;11.20;99.90;;;;;;4999599;28;20233;-76
2020/12/19 10:25:12;;;;;;;8.77;5.50;;;11.40;99.90;;;;;;5011563;28;20257;-74
2020/12/19 10:27:39;;;;;;;6.77;4.53;;;11.80;99.90;;;;;;5014345;28;20174;-76
2020/12/19 10:30:05;;;;;;;4.80;4.30;;;11.90;99.90;;;;;;5014319;28;20518;-75
2020/12/19 10:32:31;;;;;;;6.43;4.37;;;11.80;99.90;;;;;;5013978;28;20456;-76
2020/12/19 10:34:57;;;;;;;6.80;4.10;;;12.40;99.90;;;;;;5014244;28;20406;-76
2020/12/19 10:37:22;;;;;;;5.47;4.57;;;12.20;99.90;;;;;;5010632;28;20257;-76
2020/12/19 10:39:48;;;;;;;7.03;4.90;;;12.20;99.90;;;;;;5003516;28;20179;-74
2020/12/19 10:42:14;;;;;;;5.43;4.20;;;12.00;99.90;;;;;;5004537;28;20198;-76
2020/12/19 10:44:40;;;;;;;5.80;4.03;;;12.40;99.90;;;;;;4997313;28;20175;-76
2020/12/19 10:47:06;;;;;;;7.30;4.73;;;12.70;99.90;;;;;;4994522;28;20426;-75
2020/12/19 10:49:31;;;;;;;7.60;5.40;;;12.50;99.90;;;;;;4994124;28;20445;-75
2020/12/19 10:51:57;;;;;;;6.83;5.07;;;12.90;99.90;;;;;;4994038;28;20200;-75
2020/12/19 10:54:22;;;;;;;5.90;4.43;;;12.70;99.90;;;;;;4994264;28;20202;-75
2020/12/19 10:56:48;;;;;;;5.17;4.67;;;12.80;99.90;;;;;;4994275;28;20542;-75
2020/12/19 10:59:13;;;;;;;5.40;4.60;;;12.90;99.90;;;;;;4994189;28;20254;-75
2020/12/19 11:01:39;;;;;;;5.27;3.97;;;13.00;99.90;;;;;;4994029;28;20279;-75
2020/12/19 11:04:05;;;;;;;5.77;4.00;;;13.10;99.90;;;;;;4993919;28;20531;-76
2020/12/19 11:06:30;;;;;;;4.70;3.70;;;13.10;99.90;;;;;;4994154;28;20179;-76
2020/12/19 11:08:56;;;;;;;4.60;3.40;;;13.40;99.90;;;;;;4994214;28;20265;-75
2020/12/19 11:11:22;;;;;;;4.03;3.63;;;13.80;99.90;;;;;;4994057;28;20196;-75
2020/12/19 11:13:49;;;;;;;4.77;4.17;;;13.90;99.90;;;;;;4992772;28;20191;-76
2020/12/19 11:16:26;;;;;;;4.07;3.33;;;13.80;99.90;;;;;;4993998;28;20446;-77
2020/12/19 11:18:52;;;;;;;3.30;3.00;;;13.80;99.90;;;;;;4993872;28;20402;-76
2020/12/19 11:21:18;;;;;;;5.17;3.80;;;14.00;99.90;;;;;;4993813;28;20401;-75
2020/12/19 11:23:43;;;;;;;4.40;3.70;;;14.10;99.90;;;;;;4993527;28;20472;-77
2020/12/19 11:26:09;;;;;;;4.90;3.83;;;14.10;99.90;;;;;;4993511;28;20319;-76
2020/12/19 11:28:36;;;;;;;4.03;3.53;;;14.10;99.90;;;;;;4993506;28;20497;-75
2020/12/19 11:31:01;;;;;;;3.90;2.90;;;14.00;99.90;;;;;;4993717;28;20195;-76
2020/12/19 11:33:27;;;;;;;3.83;3.47;;;14.10;99.90;;;;;;4993441;28;20414;-76
2020/12/19 11:35:52;;;;;;;4.50;3.67;;;14.00;99.90;;;;;;4993722;28;20202;-76
2020/12/19 11:38:18;;;;;;;4.70;3.37;;;14.00;99.90;;;;;;4993885;28;20253;-75
2020/12/19 11:40:44;;;;;;;4.43;3.67;;;14.20;99.90;;;;;;4993816;28;20759;-75
2020/12/19 11:43:09;;;;;;;3.53;3.23;;;14.20;99.90;;;;;;4993372;28;20187;-75
2020/12/19 11:45:35;;;;;;;6.33;3.63;;;14.50;99.90;;;;;;4993564;28;20183;-75
2020/12/19 11:48:00;;;;;;;4.53;4.13;;;14.50;99.90;;;;;;4993536;28;20179;-75
2020/12/19 11:50:26;;;;;;;3.30;3.00;;;14.30;99.90;;;;;;4993627;28;20199;-76
2020/12/19 11:52:52;;;;;;;6.03;3.20;;;14.40;99.90;;;;;;4992040;28;20589;-76
2020/12/19 11:55:17;;;;;;;6.10;3.47;;;14.60;99.90;;;;;;4993511;28;20184;-76
2020/12/19 11:57:43;;;;;;;4.83;3.23;;;14.50;99.90;;;;;;4993902;28;20191;-75
2020/12/19 12:00:08;;;;;;;3.93;2.70;;;14.40;99.90;;;;;;4993637;28;20254;-76
2020/12/19 12:02:34;;;;;;;3.83;2.30;;;14.30;99.90;;;;;;4992189;28;20210;-79
2020/12/19 12:05:00;;;;;;;5.30;3.03;;;14.30;99.90;;;;;;4993539;28;20640;-75
2020/12/19 12:07:26;;;;;;;5.20;2.20;;;14.50;99.90;;;;;;4993639;28;20180;-76
2020/12/19 12:09:51;;;;;;;3.60;2.20;;;14.60;99.90;;;;;;4993495;28;20179;-75
2020/12/19 12:12:17;;;;;;;3.30;2.20;;;14.60;99.90;;;;;;4993180;28;20192;-76
2020/12/19 12:14:43;;;;;;;2.80;2.27;;;14.70;99.90;;;;;;4992336;28;20179;-77
2020/12/19 12:17:08;;;;;;;2.50;2.10;;;14.60;99.90;;;;;;4993428;28;20546;-76
2020/12/19 12:19:34;;;;;;;2.80;2.37;;;14.50;99.90;;;;;;4993027;28;20648;-74
2020/12/19 12:21:59;;;;;;;2.90;2.30;;;14.50;99.90;;;;;;4992952;28;20195;-76
2020/12/19 12:24:25;;;;;;;2.83;1.97;;;14.30;99.90;;;;;;4993281;28;20180;-75
2020/12/19 12:26:51;;;;;;;6.33;2.27;;;14.40;99.90;;;;;;4993386;28;20183;-75
2020/12/19 12:29:16;;;;;;;3.63;2.53;;;14.20;99.90;;;;;;4993366;28;20644;-75
2020/12/19 12:31:42;;;;;;;2.20;2.03;;;14.20;99.90;;;;;;4993074;28;20196;-75
2020/12/19 12:34:08;;;;;;;4.10;2.47;;;14.20;99.90;;;;;;4992646;28;20186;-76
2020/12/19 12:36:36;;;;;;;3.07;2.73;;;14.00;99.90;;;;;;4993149;28;20466;-76
2020/12/19 12:39:03;;;;;;;5.47;2.17;;;14.00;99.90;;;;;;4996416;28;20410;-75
2020/12/19 12:41:28;;;;;;;5.20;2.40;;;13.90;99.90;;;;;;5010634;28;20433;-76